Time;durP1;ratioP1;P1;durP2;ratioP2;P2;SDS_P1;SDS_P2;PMS_P1;PMS_P2;Temp;Humidity;BMP_temperature;BMP_pressure;BME280_temperature;BME280_humidity;BME280_pressure;Samples;Min_cycle;Max_cycle;Signal;HPM_P1;HPM_P2
2023/06/06 00:01:56;;;;;;;;;;;16.80;99.90;;;;;;5031360;28;19913;-64
2023/06/06 00:04:22;;;;;;;;;;;16.80;99.90;;;;;;5020182;28;19936;-60
2023/06/06 00:06:52;;;;;;;;;;;16.80;99.90;;;;;;5011436;28;19952;-64
2023/06/06 00:09:19;;;;;;;;;;;16.80;99.90;;;;;;5011779;28;20365;-63
2023/06/06 00:11:46;;;;;;;;;;;16.80;99.90;;;;;;5027273;28;19916;-63
2023/06/06 00:14:18;;;;;;;;;;;16.70;99.90;;;;;;5025128;28;19909;-63
2023/06/06 00:16:49;;;;;;;;;;;16.80;99.90;;;;;;5027572;28;19959;-66
2023/06/06 00:19:16;;;;;;;;;;;16.80;99.90;;;;;;5027515;28;19924;-65
2023/06/06 00:21:43;;;;;;;;;;;16.80;99.90;;;;;;5028554;28;19916;-63
2023/06/06 00:24:11;;;;;;;;;;;16.80;99.90;;;;;;5023835;28;19917;-63
2023/06/06 00:26:38;;;;;;;;;;;16.90;99.90;;;;;;5032654;28;20358;-62
2023/06/06 00:29:05;;;;;;;;;;;17.10;99.90;;;;;;5032929;28;19909;-64
2023/06/06 00:31:31;;;;;;;;;;;17.00;99.90;;;;;;5034034;28;19920;-65
2023/06/06 00:33:58;;;;;;;;;;;16.90;99.90;;;;;;5025053;28;19948;-62
2023/06/06 00:36:24;;;;;;;;;;;17.00;99.90;;;;;;5032447;28;20354;-62
2023/06/06 00:38:51;;;;;;;;;;;17.10;99.90;;;;;;5033516;28;19964;-62
2023/06/06 00:41:18;;;;;;;;;;;17.20;99.90;;;;;;5033333;28;20000;-61
2023/06/06 00:43:45;;;;;;;;;;;17.40;99.90;;;;;;5024647;28;19914;-63
2023/06/06 00:46:13;;;;;;;;;;;17.50;99.90;;;;;;5017414;28;19960;-64
2023/06/06 00:48:40;;;;;;;;;;;17.70;99.90;;;;;;5016913;28;19917;-61
2023/06/06 00:51:08;;;;;;;;;;;17.80;99.90;;;;;;5020050;28;19956;-65
2023/06/06 00:53:35;;;;;;;;;;;18.00;99.90;;;;;;5032884;28;19917;-66
2023/06/06 00:56:02;;;;;;;;;;;18.10;99.90;;;;;;5034040;28;19959;-62
2023/06/06 00:58:30;;;;;;;;;;;18.30;99.90;;;;;;5034774;28;19921;-65
2023/06/06 01:01:01;;;;;;;;;;;18.40;99.90;;;;;;5035021;28;19909;-63
2023/06/06 01:03:29;;;;;;;;;;;18.60;99.90;;;;;;5034220;28;20370;-63
2023/06/06 01:05:56;;;;;;;;;;;18.70;99.90;;;;;;5034401;28;20362;-61
2023/06/06 01:08:23;;;;;;;;;;;18.70;99.90;;;;;;5035125;28;19909;-60
2023/06/06 01:10:51;;;;;;;;;;;18.50;99.90;;;;;;5029953;28;19914;-61
2023/06/06 01:13:18;;;;;;;;;;;18.40;99.90;;;;;;5020320;28;19932;-63
2023/06/06 01:15:58;;;;;;;;;;;18.50;99.90;;;;;;5033906;28;19920;-64
2023/06/06 01:18:25;;;;;;;;;;;18.40;99.90;;;;;;5034816;28;19917;-65
2023/06/06 01:20:51;;;;;;;;;;;18.30;99.90;;;;;;5024094;28;19917;-63
2023/06/06 01:23:18;;;;;;;;;;;18.30;99.90;;;;;;5033514;28;19962;-61
2023/06/06 01:25:48;;;;;;;;;;;18.20;99.90;;;;;;5033680;28;19983;-64
2023/06/06 01:28:15;;;;;;;;;;;18.20;99.90;;;;;;5034883;28;20346;-61
2023/06/06 01:30:42;;;;;;;;;;;18.10;99.90;;;;;;5034493;28;19913;-64
2023/06/06 01:33:15;;;;;;;;;;;18.10;99.90;;;;;;5033666;28;19909;-63
2023/06/06 01:35:52;;;;;;;;;;;18.10;99.90;;;;;;5033304;28;20000;-62
2023/06/06 01:38:25;;;;;;;;;;;18.30;99.90;;;;;;5033815;28;19971;-64
2023/06/06 01:40:55;;;;;;;;;;;18.60;99.90;;;;;;5034114;28;20890;-62
2023/06/06 01:43:23;;;;;;;;;;;18.50;99.90;;;;;;5031763;28;20381;-66
2023/06/06 01:45:50;;;;;;;;;;;18.60;99.90;;;;;;5033675;28;19916;-63
2023/06/06 01:48:18;;;;;;;;;;;18.70;99.90;;;;;;5029587;28;19913;-64
2023/06/06 01:50:45;;;;;;;;;;;18.90;99.90;;;;;;5028869;28;20096;-64
2023/06/06 01:53:12;;;;;;;;;;;18.90;99.90;;;;;;5033581;28;19920;-65
2023/06/06 01:55:39;;;;;;;;;;;19.00;99.90;;;;;;5033129;28;19913;-63
2023/06/06 01:58:05;;;;;;;;;;;18.90;99.90;;;;;;5033809;28;20305;-63
2023/06/06 02:00:32;;;;;;;;;;;18.90;99.90;;;;;;5032947;28;19924;-65
2023/06/06 02:02:59;;;;;;;;;;;18.90;99.90;;;;;;5032958;28;20397;-65
2023/06/06 02:05:25;;;;;;;;;;;18.80;99.90;;;;;;5033281;28;20404;-63
2023/06/06 02:07:52;;;;;;;;;;;18.90;99.90;;;;;;5033366;28;19967;-62
2023/06/06 02:10:18;;;;;;;;;;;18.90;99.90;;;;;;5033772;28;19909;-67
2023/06/06 02:12:45;;;;;;;;;;;19.00;99.90;;;;;;5032095;28;20366;-65
2023/06/06 02:15:13;;;;;;;;;;;19.00;99.90;;;;;;5032546;28;20003;-66
2023/06/06 02:17:41;;;;;;;;;;;19.00;99.90;;;;;;5031216;28;20080;-66
2023/06/06 02:20:09;;;;;;;;;;;19.00;99.90;;;;;;5032396;28;19917;-65
2023/06/06 02:22:36;;;;;;;;;;;19.20;99.90;;;;;;5033725;28;19968;-64
2023/06/06 02:25:03;;;;;;;;;;;19.20;99.90;;;;;;5033323;28;20362;-64
2023/06/06 02:27:31;;;;;;;;;;;19.10;99.90;;;;;;5034728;28;19910;-65
2023/06/06 02:29:57;;;;;;;;;;;18.90;99.90;;;;;;5034401;28;19928;-64
2023/06/06 02:32:24;;;;;;;;;;;19.00;99.90;;;;;;5033697;28;19916;-65
2023/06/06 02:34:51;;;;;;;;;;;19.20;99.90;;;;;;5030508;28;19921;-62
2023/06/06 02:37:17;;;;;;;;;;;19.10;99.90;;;;;;5018797;28;19929;-66
2023/06/06 02:39:44;;;;;;;;;;;19.10;99.90;;;;;;5013577;28;19917;-66
2023/06/06 02:42:10;;;;;;;;;;;18.90;99.90;;;;;;5026360;28;19917;-66
2023/06/06 02:44:37;;;;;;;;;;;18.80;99.90;;;;;;5032279;28;19909;-66
2023/06/06 02:47:04;;;;;;;;;;;18.60;99.90;;;;;;5033246;28;19909;-66
2023/06/06 02:49:31;;;;;;;;;;;18.40;99.90;;;;;;5032250;28;19983;-66
2023/06/06 02:51:57;;;;;;;;;;;18.40;99.90;;;;;;5012042;28;19910;-66
2023/06/06 02:54:24;;;;;;;;;;;18.40;99.90;;;;;;5030894;28;19921;-64
2023/06/06 02:56:51;;;;;;;;;;;18.60;99.90;;;;;;5015439;28;19916;-64
2023/06/06 02:59:17;;;;;;;;;;;18.80;99.90;;;;;;5032309;28;20286;-67
2023/06/06 03:01:47;;;;;;;;;;;19.00;99.90;;;;;;5032432;28;19925;-67
2023/06/06 03:04:14;;;;;;;;;;;19.10;99.90;;;;;;5031770;28;19909;-65
2023/06/06 03:06:41;;;;;;;;;;;19.30;99.90;;;;;;5032601;28;19913;-66
2023/06/06 03:09:09;;;;;;;;;;;19.60;99.90;;;;;;5032408;28;19921;-65
2023/06/06 03:11:36;;;;;;;;;;;20.30;99.90;;;;;;5033167;28;19909;-64
2023/06/06 03:14:03;;;;;;;;;;;20.50;99.90;;;;;;5031895;28;19909;-64
2023/06/06 03:16:30;;;;;;;;;;;20.80;99.90;;;;;;5032268;28;19914;-66
2023/06/06 03:18:57;;;;;;;;;;;21.20;99.90;;;;;;5025772;28;19922;-66
2023/06/06 03:21:24;;;;;;;;;;;21.60;99.90;;;;;;5008529;28;19917;-64
2023/06/06 03:23:50;;;;;;;;;;;21.90;99.90;;;;;;5032608;28;19978;-65
2023/06/06 03:26:19;;;;;;;;;;;21.70;99.90;;;;;;5030851;28;20381;-65
2023/06/06 03:28:46;;;;;;;;;;;21.60;99.90;;;;;;5012716;28;20230;-64
2023/06/06 03:31:12;;;;;;;;;;;22.00;99.90;;;;;;5017438;28;19913;-67
2023/06/06 03:33:39;;;;;;;;;;;22.40;99.90;;;;;;5032105;28;19909;-66
2023/06/06 03:36:08;;;;;;;;;;;23.10;99.90;;;;;;5031418;28;19917;-65
2023/06/06 03:38:35;;;;;;;;;;;24.70;99.90;;;;;;5031827;28;19921;-64
2023/06/06 03:41:02;;;;;;;;;;;26.60;97.80;;;;;;5032108;28;20381;-65
2023/06/06 03:43:30;;;;;;;;;;;28.50;94.60;;;;;;5031808;28;20345;-64
2023/06/06 03:45:56;;;;;;;;;;;29.70;93.00;;;;;;5023672;28;20384;-66
2023/06/06 03:48:23;;;;;;;;;;;31.20;91.30;;;;;;5011256;28;20332;-65
2023/06/06 03:50:50;;;;;;;;;;;31.70;86.60;;;;;;5012509;28;19910;-65
2023/06/06 03:53:16;;;;;;;;;;;31.80;83.90;;;;;;5020894;28;20275;-65
2023/06/06 03:55:44;;;;;;;;;;;31.90;82.90;;;;;;5031533;28;19944;-65
2023/06/06 03:58:13;;;;;;;;;;;30.90;83.60;;;;;;5032174;28;20267;-64
2023/06/06 04:00:40;;;;;;;;;;;29.70;85.30;;;;;;5031398;28;19917;-65
2023/06/06 04:03:06;;;;;;;;;;;29.40;86.10;;;;;;5032062;28;19964;-65
2023/06/06 04:05:34;;;;;;;;;;;30.10;85.30;;;;;;5028646;28;19921;-65
2023/06/06 04:08:01;;;;;;;;;;;29.90;83.90;;;;;;5024460;28;19913;-66
2023/06/06 04:10:28;;;;;;;;;;;29.20;85.70;;;;;;5012062;28;19909;-66
2023/06/06 04:12:54;;;;;;;;;;;28.40;86.50;;;;;;5014586;28;19963;-67
2023/06/06 04:15:21;;;;;;;;;;;27.50;89.10;;;;;;5031789;28;19932;-66
2023/06/06 04:17:48;;;;;;;;;;;26.50;90.80;;;;;;5025256;28;19913;-64
2023/06/06 04:20:14;;;;;;;;;;;25.70;91.70;;;;;;5029830;28;19924;-63
2023/06/06 04:22:43;;;;;;;;;;;24.80;92.80;;;;;;5031416;28;19971;-62
2023/06/06 04:25:12;;;;;;;;;;;24.10;94.00;;;;;;5025562;28;19920;-64
2023/06/06 04:27:40;;;;;;;;;;;23.60;94.90;;;;;;5031534;28;20007;-64
2023/06/06 04:30:09;;;;;;;;;;;23.20;95.80;;;;;;5031929;28;19909;-65
2023/06/06 04:32:36;;;;;;;;;;;22.80;95.90;;;;;;5012813;28;19916;-63
2023/06/06 04:35:03;;;;;;;;;;;22.30;97.10;;;;;;5031090;28;19992;-63
2023/06/06 04:37:31;;;;;;;;;;;21.80;97.80;;;;;;5026030;28;20345;-64
2023/06/06 04:40:00;;;;;;;;;;;21.70;98.20;;;;;;5024759;28;20020;-63
2023/06/06 04:42:32;;;;;;;;;;;21.70;98.30;;;;;;5030131;28;19910;-63
2023/06/06 04:45:06;;;;;;;;;;;21.60;98.70;;;;;;5028880;28;20362;-64
2023/06/06 04:47:34;;;;;;;;;;;21.40;98.80;;;;;;5030480;28;19913;-64
2023/06/06 04:50:00;;;;;;;;;;;21.60;99.00;;;;;;5030583;28;19979;-66
2023/06/06 04:52:28;;;;;;;;;;;21.30;98.70;;;;;;5030015;28;19913;-64
2023/06/06 04:54:57;;;;;;;;;;;21.30;99.30;;;;;;5028183;28;19914;-62
2023/06/06 04:57:24;;;;;;;;;;;21.20;99.70;;;;;;5030562;28;19963;-64
2023/06/06 04:59:53;;;;;;;;;;;21.10;99.90;;;;;;5030191;28;19956;-64
2023/06/06 05:02:21;;;;;;;;;;;21.10;99.80;;;;;;5027221;28;20353;-65
2023/06/06 05:04:54;;;;;;;;;;;20.70;99.90;;;;;;5026956;28;20023;-63
2023/06/06 05:07:24;;;;;;;;;;;20.60;99.90;;;;;;5027554;28;19924;-66
2023/06/06 05:09:53;;;;;;;;;;;20.60;99.90;;;;;;5029331;28;19909;-62
2023/06/06 05:12:21;;;;;;;;;;;20.60;99.90;;;;;;5033301;28;19917;-64
2023/06/06 05:14:48;;;;;;;;;;;20.80;99.90;;;;;;5016246;28;20318;-61
2023/06/06 05:17:17;;;;;;;;;;;20.90;99.90;;;;;;5027945;28;20369;-64
2023/06/06 05:19:47;;;;;;;;;;;20.50;99.90;;;;;;5032201;28;19917;-63
2023/06/06 05:22:14;;;;;;;;;;;20.50;99.90;;;;;;5030390;28;19960;-63
2023/06/06 05:24:41;;;;;;;;;;;20.30;99.90;;;;;;5031105;28;19948;-62
2023/06/06 05:27:08;;;;;;;;;;;20.10;99.90;;;;;;5034291;28;20004;-62
2023/06/06 05:29:35;;;;;;;;;;;20.00;99.90;;;;;;5025521;28;20012;-64
2023/06/06 05:32:02;;;;;;;;;;;19.90;99.90;;;;;;5020312;28;20025;-63
2023/06/06 05:34:29;;;;;;;;;;;19.70;99.90;;;;;;5033622;28;19909;-62
2023/06/06 05:36:55;;;;;;;;;;;19.80;99.90;;;;;;5033975;28;20003;-62
2023/06/06 05:39:24;;;;;;;;;;;20.10;99.90;;;;;;5033993;28;20003;-63
2023/06/06 05:41:54;;;;;;;;;;;20.20;99.90;;;;;;5022831;28;19960;-62
2023/06/06 05:44:22;;;;;;;;;;;20.40;99.90;;;;;;5032767;28;19913;-63
2023/06/06 05:46:54;;;;;;;;;;;20.20;99.90;;;;;;5034179;28;19959;-63
2023/06/06 05:49:22;;;;;;;;;;;20.10;99.90;;;;;;5016023;28;19929;-64
2023/06/06 05:51:49;;;;;;;;;;;20.00;99.90;;;;;;5025888;28;19920;-62
2023/06/06 05:54:16;;;;;;;;;;;19.80;99.90;;;;;;5026937;28;19912;-62
2023/06/06 05:56:43;;;;;;;;;;;19.60;99.90;;;;;;5031809;28;19913;-62
2023/06/06 05:59:09;;;;;;;;;;;19.50;99.90;;;;;;5032652;28;20921;-62
2023/06/06 06:01:39;;;;;;;;;;;19.20;99.90;;;;;;5033393;28;19909;-64
2023/06/06 06:04:07;;;;;;;;;;;19.10;99.90;;;;;;5031627;28;19916;-65
2023/06/06 06:06:35;;;;;;;;;;;19.00;99.90;;;;;;5032035;28;19952;-64
2023/06/06 06:09:03;;;;;;;;;;;18.80;99.90;;;;;;5032886;28;19980;-64
2023/06/06 06:11:30;;;;;;;;;;;18.70;99.90;;;;;;5028432;28;20303;-64
2023/06/06 06:13:57;;;;;;;;;;;18.50;99.90;;;;;;5033240;28;19909;-67
2023/06/06 06:16:24;;;;;;;;;;;18.50;99.90;;;;;;5032630;28;20047;-62
2023/06/06 06:18:50;;;;;;;;;;;18.50;99.90;;;;;;5032382;28;20024;-64
2023/06/06 06:21:19;;;;;;;;;;;18.40;99.90;;;;;;5032847;28;19919;-64
2023/06/06 06:23:46;;;;;;;;;;;18.30;99.90;;;;;;5021285;28;19913;-65
2023/06/06 06:26:12;;;;;;;;;;;18.20;99.90;;;;;;5024361;28;19913;-64
2023/06/06 06:28:39;;;;;;;;;;;18.10;99.90;;;;;;5032037;28;19914;-63
2023/06/06 06:31:06;;;;;;;;;;;18.00;99.90;;;;;;5032453;28;20007;-64
2023/06/06 06:33:33;;;;;;;;;;;17.90;99.90;;;;;;5028675;28;19967;-68
2023/06/06 06:36:00;;;;;;;;;;;17.90;99.90;;;;;;5031125;28;19917;-66
2023/06/06 06:38:27;;;;;;;;;;;17.90;99.90;;;;;;5033036;28;20553;-65
2023/06/06 06:40:54;;;;;;;;;;;17.80;99.90;;;;;;5032685;28;20297;-66
2023/06/06 06:43:20;;;;;;;;;;;17.80;99.90;;;;;;5032365;28;20401;-65
2023/06/06 06:45:47;;;;;;;;;;;17.80;99.90;;;;;;5030169;28;19960;-64
2023/06/06 06:48:14;;;;;;;;;;;17.70;99.90;;;;;;5031555;28;19917;-67
2023/06/06 06:50:40;;;;;;;;;;;17.70;99.90;;;;;;5031661;28;19917;-64
2023/06/06 06:53:09;;;;;;;;;;;17.60;99.90;;;;;;5016171;28;20358;-64
2023/06/06 06:55:37;;;;;;;;;;;17.60;99.90;;;;;;5031063;28;20008;-66
2023/06/06 06:58:05;;;;;;;;;;;17.50;99.90;;;;;;5031759;28;19913;-66
2023/06/06 07:00:33;;;;;;;;;;;17.40;99.90;;;;;;5032089;28;19917;-66
2023/06/06 07:03:03;;;;;;;;;;;17.30;99.90;;;;;;5032498;28;19910;-63
2023/06/06 07:05:30;;;;;;;;;;;17.30;99.90;;;;;;5022627;28;19909;-66
2023/06/06 07:07:58;;;;;;;;;;;17.30;99.90;;;;;;5031467;28;19982;-64
2023/06/06 07:10:25;;;;;;;;;;;17.20;99.90;;;;;;5013718;28;19959;-65
2023/06/06 07:12:52;;;;;;;;;;;17.10;99.90;;;;;;5013333;28;19916;-65
2023/06/06 07:15:20;;;;;;;;;;;17.10;99.90;;;;;;5027293;28;19909;-63
2023/06/06 07:17:49;;;;;;;;;;;17.10;99.90;;;;;;5031875;28;19992;-64
2023/06/06 07:20:21;;;;;;;;;;;17.10;99.90;;;;;;5030538;28;19925;-64
2023/06/06 07:22:49;;;;;;;;;;;17.10;99.90;;;;;;5031620;28;20003;-63
2023/06/06 07:25:16;;;;;;;;;;;17.00;99.90;;;;;;5031772;28;19909;-64
2023/06/06 07:27:43;;;;;;;;;;;16.90;99.90;;;;;;5029380;28;19948;-65
2023/06/06 07:30:14;;;;;;;;;;;16.90;99.90;;;;;;5030859;28;19917;-63
2023/06/06 07:32:41;;;;;;;;;;;16.90;99.90;;;;;;5031536;28;19917;-64
2023/06/06 07:35:09;;;;;;;;;;;16.80;99.90;;;;;;5017257;28;19920;-65
2023/06/06 07:37:39;;;;;;;;;;;16.80;99.90;;;;;;5015838;28;19919;-65
2023/06/06 07:40:08;;;;;;;;;;;16.70;99.90;;;;;;5031490;28;19917;-65
2023/06/06 07:42:39;;;;;;;;;;;16.70;99.90;;;;;;5028650;28;19921;-64
2023/06/06 07:45:06;;;;;;;;;;;16.60;99.90;;;;;;5028935;28;19921;-64
2023/06/06 07:47:33;;;;;;;;;;;16.60;99.90;;;;;;5029864;28;19913;-66
2023/06/06 07:49:59;;;;;;;;;;;16.60;99.90;;;;;;5028632;28;19927;-65
2023/06/06 07:52:26;;;;;;;;;;;16.50;99.90;;;;;;5031814;28;20342;-66
2023/06/06 07:54:53;;;;;;;;;;;16.60;99.90;;;;;;5027289;28;19941;-62
2023/06/06 07:57:19;;;;;;;;;;;16.50;99.90;;;;;;5023274;28;19955;-65
2023/06/06 07:59:46;;;;;;;;;;;16.60;99.90;;;;;;5031469;28;19917;-64
2023/06/06 08:02:14;;;;;;;;;;;16.50;99.90;;;;;;5022250;28;19921;-65
2023/06/06 08:04:45;;;;;;;;;;;16.60;99.90;;;;;;5014456;28;21906;-64
2023/06/06 08:07:15;;;;;;;;;;;16.50;99.90;;;;;;5031589;28;20004;-67
2023/06/06 08:09:43;;;;;;;;;;;16.50;99.90;;;;;;5031796;28;19913;-68
2023/06/06 08:12:10;;;;;;;;;;;16.40;99.90;;;;;;5031544;28;19916;-67
2023/06/06 08:14:37;;;;;;;;;;;16.40;99.90;;;;;;5012927;28;20355;-68
2023/06/06 08:17:04;;;;;;;;;;;16.40;99.90;;;;;;5027010;28;19921;-67
2023/06/06 08:19:31;;;;;;;;;;;16.30;99.90;;;;;;5031367;28;20373;-66
2023/06/06 08:21:58;;;;;;;;;;;16.20;99.90;;;;;;5031083;28;19928;-64
2023/06/06 08:24:25;;;;;;;;;;;16.20;99.90;;;;;;5031380;28;19991;-66
2023/06/06 08:26:51;;;;;;;;;;;16.20;99.90;;;;;;5018054;28;19917;-66
2023/06/06 08:29:18;;;;;;;;;;;16.20;99.90;;;;;;5031881;28;19909;-64
2023/06/06 08:31:45;;;;;;;;;;;16.20;99.90;;;;;;5031460;28;19909;-64
2023/06/06 08:34:12;;;;;;;;;;;16.10;99.90;;;;;;5013773;28;19913;-66
2023/06/06 08:36:38;;;;;;;;;;;16.10;99.90;;;;;;5029553;28;19949;-66
2023/06/06 08:39:06;;;;;;;;;;;16.10;99.90;;;;;;5031321;28;21087;-65
2023/06/06 08:41:33;;;;;;;;;;;16.10;99.90;;;;;;5030622;28;19923;-64
2023/06/06 08:44:00;;;;;;;;;;;16.10;99.90;;;;;;5031286;28;20349;-67
2023/06/06 08:46:28;;;;;;;;;;;16.00;99.90;;;;;;5032263;28;19909;-65
2023/06/06 08:48:55;;;;;;;;;;;16.00;99.90;;;;;;5035777;28;19983;-65
2023/06/06 08:51:25;;;;;;;;;;;15.90;99.90;;;;;;5035569;28;19920;-65
2023/06/06 08:53:52;;;;;;;;;;;16.00;99.90;;;;;;5035316;28;19909;-65
2023/06/06 08:56:22;;;;;;;;;;;16.00;99.90;;;;;;5032492;28;19920;-67
2023/06/06 08:58:50;;;;;;;;;;;16.10;99.90;;;;;;5015359;28;20366;-65
2023/06/06 09:01:22;;;;;;;;;;;16.10;99.90;;;;;;4998030;28;19963;-64
2023/06/06 09:03:52;;;;;;;;;;;16.20;99.90;;;;;;5015619;28;19909;-68
2023/06/06 09:06:20;;;;;;;;;;;16.20;99.90;;;;;;5031328;28;19913;-65
2023/06/06 09:08:47;;;;;;;;;;;16.30;99.90;;;;;;5035254;28;19909;-66
2023/06/06 09:11:15;;;;;;;;;;;16.30;99.90;;;;;;5029771;28;19967;-66
2023/06/06 09:13:42;;;;;;;;;;;16.30;99.90;;;;;;5033765;28;19944;-66
2023/06/06 09:16:09;;;;;;;;;;;16.30;99.90;;;;;;5034618;28;19975;-65
2023/06/06 09:18:35;;;;;;;;;;;16.30;99.90;;;;;;5034468;28;19917;-65
2023/06/06 09:21:02;;;;;;;;;;;16.30;99.90;;;;;;5030529;28;19914;-66
2023/06/06 09:23:32;;;;;;;;;;;16.30;99.90;;;;;;5015404;28;19909;-66
2023/06/06 09:25:59;;;;;;;;;;;16.30;99.90;;;;;;5015228;28;19910;-64
2023/06/06 09:28:39;;;;;;;;;;;16.20;99.90;;;;;;5015013;28;19987;-66
2023/06/06 09:31:25;;;;;;;;;;;16.20;99.90;;;;;;5032444;28;19909;-66
2023/06/06 09:33:55;;;;;;;;;;;16.10;99.90;;;;;;5034330;28;19936;-65
2023/06/06 09:36:23;;;;;;;;;;;16.10;99.90;;;;;;5034239;28;19909;-65
2023/06/06 09:38:51;;;;;;;;;;;16.00;99.90;;;;;;5033984;28;19932;-63
2023/06/06 09:41:17;;;;;;;;;;;16.00;99.90;;;;;;5033918;28;19909;-66
2023/06/06 09:43:44;;;;;;;;;;;15.90;99.90;;;;;;5029922;28;19921;-67
2023/06/06 09:46:15;;;;;;;;;;;15.90;99.90;;;;;;5024649;28;19913;-65
2023/06/06 09:48:42;;;;;;;;;;;15.90;99.90;;;;;;5034128;28;19917;-66
2023/06/06 09:51:12;;;;;;;;;;;15.90;99.90;;;;;;5033752;28;20311;-65
2023/06/06 09:53:40;;;;;;;;;;;15.70;99.90;;;;;;5028522;28;19913;-65
2023/06/06 09:56:07;;;;;;;;;;;15.70;99.90;;;;;;5014133;28;20349;-64
2023/06/06 09:58:35;;;;;;;;;;;15.60;99.90;;;;;;5012822;28;20014;-67
2023/06/06 10:01:02;;;;;;;;;;;15.70;99.90;;;;;;5031455;28;20099;-66
2023/06/06 10:03:30;;;;;;;;;;;15.60;99.90;;;;;;5015757;28;20426;-65
2023/06/06 10:05:57;;;;;;;;;;;15.70;99.90;;;;;;5014049;28;20307;-65
2023/06/06 10:08:24;;;;;;;;;;;15.60;99.90;;;;;;5014223;28;20236;-66
2023/06/06 10:10:50;;;;;;;;;;;15.60;99.90;;;;;;5029302;28;19959;-66
2023/06/06 10:13:18;;;;;;;;;;;15.70;99.90;;;;;;5031494;28;19913;-65
2023/06/06 10:15:45;;;;;;;;;;;15.60;99.90;;;;;;5032230;28;20005;-62
2023/06/06 10:18:14;;;;;;;;;;;15.70;99.90;;;;;;5033943;28;20003;-64
2023/06/06 10:20:41;;;;;;;;;;;15.60;99.90;;;;;;5033561;28;19909;-63
2023/06/06 10:23:08;;;;;;;;;;;15.60;99.90;;;;;;5033720;28;19920;-63
2023/06/06 10:25:37;;;;;;;;;;;15.50;99.90;;;;;;5033149;28;19960;-65
2023/06/06 10:28:21;;;;;;;;;;;15.50;99.90;;;;;;5033718;28;20293;-63
2023/06/06 10:31:06;;;;;;;;;;;15.60;99.90;;;;;;5033522;28;19916;-64
2023/06/06 10:33:45;;;;;;;;;;;15.50;99.90;;;;;;5031643;28;19909;-65
2023/06/06 10:36:15;;;;;;;;;;;15.50;99.90;;;;;;5033373;28;19920;-65
2023/06/06 10:39:03;;;;;;;;;;;15.50;99.90;;;;;;5032912;28;19917;-63
2023/06/06 10:41:41;;;;;;;;;;;15.50;99.90;;;;;;5033484;28;19936;-63
2023/06/06 10:44:09;;;;;;;;;;;15.50;99.90;;;;;;5033333;28;19909;-62
2023/06/06 10:46:35;;;;;;;;;;;15.50;99.90;;;;;;5033300;28;19913;-62
2023/06/06 10:49:06;;;;;;;;;;;15.50;99.90;;;;;;5020384;28;19925;-63
2023/06/06 10:51:34;;;;;;;;;;;15.40;99.90;;;;;;5033458;28;19941;-63
2023/06/06 10:54:19;;;;;;;;;;;15.40;99.90;;;;;;5032669;28;19980;-63
2023/06/06 10:56:55;;;;;;;;;;;15.30;99.90;;;;;;5032273;28;20290;-66
2023/06/06 10:59:31;;;;;;;;;;;15.30;99.90;;;;;;5033127;28;19984;-64
2023/06/06 11:01:58;;;;;;;;;;;15.30;99.90;;;;;;5013670;28;19913;-63
2023/06/06 11:04:26;;;;;;;;;;;15.20;99.90;;;;;;5002391;28;19909;-62
2023/06/06 11:06:53;;;;;;;;;;;15.20;99.90;;;;;;5032595;28;20341;-64
2023/06/06 11:09:25;;;;;;;;;;;15.20;99.90;;;;;;5032343;28;19913;-63
2023/06/06 11:12:09;;;;;;;;;;;15.20;99.90;;;;;;5029061;28;19919;-63
2023/06/06 11:14:56;;;;;;;;;;;15.20;99.90;;;;;;5029974;28;19949;-64
2023/06/06 11:17:27;;;;;;;;;;;15.20;99.90;;;;;;5014390;28;19909;-63
2023/06/06 11:19:57;;;;;;;;;;;15.10;99.90;;;;;;5032803;28;19975;-63
2023/06/06 11:22:25;;;;;;;;;;;15.10;99.90;;;;;;5032660;28;19909;-64
2023/06/06 11:24:52;;;;;;;;;;;15.10;99.90;;;;;;5032136;28;19955;-63
2023/06/06 11:27:18;;;;;;;;;;;15.10;99.90;;;;;;5032794;28;19948;-63
2023/06/06 11:29:48;;;;;;;;;;;15.10;99.90;;;;;;5014049;28;19996;-62
2023/06/06 11:32:15;;;;;;;;;;;15.10;99.90;;;;;;5021321;28;19913;-64
2023/06/06 11:34:41;;;;;;;;;;;15.10;99.90;;;;;;5032484;28;19905;-67
2023/06/06 11:37:08;;;;;;;;;;;15.10;99.90;;;;;;5031820;28;19999;-64
2023/06/06 11:39:36;;;;;;;;;;;15.00;99.90;;;;;;5033028;28;19925;-67
2023/06/06 11:42:03;;;;;;;;;;;15.00;99.90;;;;;;5027523;28;19920;-64
2023/06/06 11:44:35;;;;;;;;;;;15.00;99.90;;;;;;5014926;28;19920;-65
2023/06/06 11:47:03;;;;;;;;;;;15.00;99.90;;;;;;5013774;28;19936;-64
2023/06/06 11:49:42;;;;;;;;;;;14.90;99.90;;;;;;5028491;28;19921;-64
2023/06/06 11:52:10;;;;;;;;;;;14.90;99.90;;;;;;5031731;28;20036;-64
2023/06/06 11:54:36;;;;;;;;;;;14.90;99.90;;;;;;5012332;28;20339;-63
2023/06/06 11:57:05;;;;;;;;;;;14.90;99.90;;;;;;5012246;28;20004;-64
2023/06/06 11:59:34;;;;;;;;;;;14.80;99.90;;;;;;5012086;28;19929;-64
2023/06/06 12:02:01;;;;;;;;;;;14.70;99.90;;;;;;5010966;28;19920;-64
2023/06/06 12:04:28;;;;;;;;;;;14.80;99.90;;;;;;5011380;28;20004;-65
2023/06/06 12:06:56;;;;;;;;;;;14.70;99.90;;;;;;5029429;28;19921;-64
2023/06/06 12:09:23;;;;;;;;;;;14.70;99.90;;;;;;5032099;28;19909;-64
2023/06/06 12:11:51;;;;;;;;;;;14.70;99.90;;;;;;5031738;28;19937;-64
2023/06/06 12:14:18;;;;;;;;;;;14.70;99.90;;;;;;5032204;28;20456;-63
2023/06/06 12:16:44;;;;;;;;;;;14.70;99.90;;;;;;5032033;28;19909;-65
2023/06/06 12:19:12;;;;;;;;;;;14.70;99.90;;;;;;5032281;28;19996;-64
2023/06/06 12:21:46;;;;;;;;;;;14.60;99.90;;;;;;5034226;28;19923;-64
2023/06/06 12:24:16;;;;;;;;;;;14.60;99.90;;;;;;5035868;28;20309;-64
2023/06/06 12:26:45;;;;;;;;;;;14.60;99.90;;;;;;5035681;28;19913;-67
2023/06/06 12:29:12;;;;;;;;;;;14.60;99.90;;;;;;5035983;28;19913;-66
2023/06/06 12:31:40;;;;;;;;;;;14.70;99.90;;;;;;5036528;28;19909;-67
2023/06/06 12:34:07;;;;;;;;;;;14.70;99.90;;;;;;5036052;28;19913;-64
2023/06/06 12:36:34;;;;;;;;;;;14.80;99.90;;;;;;5035870;28;19913;-64
2023/06/06 12:39:03;;;;;;;;;;;14.90;99.90;;;;;;5035956;28;19924;-64
2023/06/06 12:41:42;;;;;;;;;;;14.90;99.90;;;;;;5035649;28;19921;-65
2023/06/06 12:44:11;;;;;;;;;;;14.90;99.90;;;;;;5035667;28;19909;-67
2023/06/06 12:46:41;;;;;;;;;;;15.00;99.90;;;;;;5035523;28;19909;-64
2023/06/06 12:49:07;;;;;;;;;;;15.00;99.90;;;;;;5035934;28;19921;-66
2023/06/06 12:51:35;;;;;;;;;;;15.10;99.90;;;;;;5034218;28;19927;-65
2023/06/06 12:54:05;;;;;;;;;;;15.10;99.90;;;;;;5035524;28;19913;-63
2023/06/06 12:56:32;;;;;;;;;;;15.20;99.90;;;;;;5035307;28;19929;-65
2023/06/06 12:59:00;;;;;;;;;;;15.20;99.90;;;;;;5035240;28;20296;-66
2023/06/06 13:01:27;;;;;;;;;;;15.20;99.90;;;;;;5035300;28;19913;-64
2023/06/06 13:03:54;;;;;;;;;;;15.20;99.90;;;;;;5035196;28;19913;-64
2023/06/06 13:06:21;;;;;;;;;;;15.20;99.90;;;;;;5017879;28;19909;-64
2023/06/06 13:08:48;;;;;;;;;;;15.20;99.90;;;;;;5035816;28;20393;-64
2023/06/06 13:11:15;;;;;;;;;;;15.20;99.90;;;;;;5035459;28;20433;-64
2023/06/06 13:13:42;;;;;;;;;;;15.30;99.90;;;;;;5035344;28;20385;-66
2023/06/06 13:16:08;;;;;;;;;;;15.30;99.90;;;;;;5035282;28;19909;-63
2023/06/06 13:18:37;;;;;;;;;;;15.30;99.90;;;;;;5034635;28;20028;-64
2023/06/06 13:21:04;;;;;;;;;;;15.30;99.90;;;;;;5034600;28;19917;-61
2023/06/06 13:23:30;;;;;;;;;;;15.30;99.90;;;;;;5035036;28;19913;-62
2023/06/06 13:25:57;;;;;;;;;;;15.40;99.90;;;;;;5034445;28;19913;-64
2023/06/06 13:28:25;;;;;;;;;;;15.40;99.90;;;;;;5034863;28;20325;-66
2023/06/06 13:30:52;;;;;;;;;;;15.40;99.90;;;;;;5035191;28;19916;-64
2023/06/06 13:33:19;;;;;;;;;;;15.40;99.90;;;;;;5033793;28;19909;-69
2023/06/06 13:35:46;;;;;;;;;;;15.40;99.90;;;;;;5034808;28;19909;-64
2023/06/06 13:38:14;;;;;;;;;;;15.50;99.90;;;;;;5035087;28;19928;-65
2023/06/06 13:40:40;;;;;;;;;;;15.40;99.90;;;;;;5035045;28;19967;-63
2023/06/06 13:43:09;;;;;;;;;;;15.40;99.90;;;;;;5034504;28;19913;-64
2023/06/06 13:45:37;;;;;;;;;;;15.50;99.90;;;;;;5034486;28;19909;-64
2023/06/06 13:48:04;;;;;;;;;;;15.50;99.90;;;;;;5034530;28;19913;-64
2023/06/06 13:50:31;;;;;;;;;;;15.50;99.90;;;;;;5035096;28;19917;-65
2023/06/06 13:52:58;;;;;;;;;;;15.40;99.90;;;;;;5035122;28;19910;-65
2023/06/06 13:55:25;;;;;;;;;;;15.40;99.90;;;;;;5034405;28;19917;-63
2023/06/06 13:57:56;;;;;;;;;;;15.50;99.90;;;;;;5033005;28;19910;-65
2023/06/06 14:00:23;;;;;;;;;;;15.50;99.90;;;;;;5034014;28;19920;-64
2023/06/06 14:02:50;;;;;;;;;;;15.40;99.90;;;;;;5033493;28;20431;-65
2023/06/06 14:05:17;;;;;;;;;;;15.40;99.90;;;;;;5034499;28;19913;-65
2023/06/06 14:07:44;;;;;;;;;;;15.40;99.90;;;;;;5034570;28;19968;-63
2023/06/06 14:10:11;;;;;;;;;;;15.40;99.90;;;;;;5034498;28;19916;-65
2023/06/06 14:12:37;;;;;;;;;;;15.50;99.90;;;;;;5032233;28;19967;-64
2023/06/06 14:15:04;;;;;;;;;;;15.40;99.90;;;;;;5034197;28;19909;-64
2023/06/06 14:17:31;;;;;;;;;;;15.40;99.90;;;;;;5034526;28;19909;-65
2023/06/06 14:19:57;;;;;;;;;;;15.50;99.90;;;;;;5034174;28;19963;-65
2023/06/06 14:22:24;;;;;;;;;;;15.50;99.90;;;;;;5034709;28;19973;-64